Time;durP1;ratioP1;P1;durP2;ratioP2;P2;SDS_P1;SDS_P2;PMS_P1;PMS_P2;Temp;Humidity;BMP_temperature;BMP_pressure;BME280_temperature;BME280_humidity;BME280_pressure;Samples;Min_cycle;Max_cycle;Signal;HPM_P1;HPM_P2
2022/08/17 00:05:20;;;;;;;20.20;14.60;;;;;;;19.05;100.00;98500.41;4240652;82;21089;-83
2022/08/17 00:11:35;;;;;;;20.00;14.75;;;;;;;18.95;100.00;98498.13;4250504;82;21484;-82
2022/08/17 00:17:37;;;;;;;18.98;14.95;;;;;;;18.99;100.00;98486.33;4213134;83;21115;-82
2022/08/17 00:23:42;;;;;;;18.95;14.50;;;;;;;19.03;100.00;98479.29;4217649;83;21059;-82
2022/08/17 00:29:44;;;;;;;20.08;14.38;;;;;;;19.01;100.00;98483.89;4250167;82;21028;-82
2022/08/17 00:35:47;;;;;;;21.02;14.78;;;;;;;18.91;100.00;98493.91;4252634;82;21935;-82
2022/08/17 00:41:49;;;;;;;19.02;14.33;;;;;;;18.83;100.00;98485.63;4255689;81;21619;-82
2022/08/17 00:47:50;;;;;;;18.23;13.15;;;;;;;18.71;100.00;98483.02;4261342;82;21000;-83
2022/08/17 00:54:12;;;;;;;25.10;13.75;;;;;;;18.58;100.00;98489.13;4254398;82;21589;-82
2022/08/17 01:00:25;;;;;;;24.85;15.85;;;;;;;18.42;100.00;98496.91;4187526;83;21565;-83
2022/08/17 01:06:28;;;;;;;20.17;14.30;;;;;;;18.36;100.00;98494.48;4189032;83;21021;-82
2022/08/17 01:12:30;;;;;;;16.65;13.48;;;;;;;18.23;100.00;98500.57;4253013;82;20953;-82
2022/08/17 01:18:33;;;;;;;20.20;14.20;;;;;;;18.07;100.00;98492.30;4235156;82;21016;-82
2022/08/17 01:24:38;;;;;;;20.00;13.70;;;;;;;18.03;100.00;98491.63;4267265;82;20995;-82
2022/08/17 01:30:40;;;;;;;16.25;13.43;;;;;;;17.95;100.00;98491.64;4267218;82;21957;-82
2022/08/17 01:36:45;;;;;;;22.70;15.32;;;;;;;17.98;100.00;98491.39;4267810;82;22344;-82
2022/08/17 01:43:01;;;;;;;20.20;15.32;;;;;;;18.03;100.00;98490.84;4240441;82;21004;-82
2022/08/17 01:49:07;;;;;;;19.77;15.58;;;;;;;17.94;100.00;98498.41;4267405;82;20998;-82
2022/08/17 01:55:09;;;;;;;17.07;14.83;;;;;;;17.95;100.00;98495.01;4257697;82;21038;-82
2022/08/17 02:01:13;;;;;;;19.48;14.90;;;;;;;17.95;100.00;98494.41;4261828;82;21003;-82
2022/08/17 02:07:16;;;;;;;15.50;13.32;;;;;;;17.92;100.00;98493.90;4240910;82;21099;-82
2022/08/17 02:13:18;;;;;;;20.00;13.88;;;;;;;17.99;100.00;98505.41;4238627;82;21055;-82
2022/08/17 02:19:20;;;;;;;17.57;13.53;;;;;;;18.04;100.00;98496.56;4215137;83;21108;-82
2022/08/17 02:25:23;;;;;;;20.23;14.45;;;;;;;18.02;100.00;98505.31;4208543;83;20996;-81
2022/08/17 02:31:26;;;;;;;17.70;13.32;;;;;;;17.98;100.00;98504.61;4249661;82;21522;-83
2022/08/17 02:37:30;;;;;;;19.67;13.98;;;;;;;17.99;100.00;98513.11;4207244;83;21610;-82
2022/08/17 02:43:33;;;;;;;16.97;13.15;;;;;;;18.01;100.00;98523.13;4248350;82;21043;-82
2022/08/17 02:49:36;;;;;;;20.08;15.08;;;;;;;17.94;100.00;98520.55;4250496;82;21046;-82
2022/08/17 02:55:41;;;;;;;23.02;14.70;;;;;;;17.94;100.00;98510.86;4251859;82;21054;-82
2022/08/17 03:01:43;;;;;;;17.10;14.68;;;;;;;17.88;100.00;98515.97;4247891;82;21010;-82
2022/08/17 03:07:44;;;;;;;20.00;15.40;;;;;;;17.75;100.00;98512.34;4251054;82;21677;-82
2022/08/17 03:13:47;;;;;;;21.68;15.90;;;;;;;17.66;100.00;98517.72;4223632;83;21031;-82
2022/08/17 03:19:48;;;;;;;20.75;12.98;;;;;;;17.52;100.00;98520.83;4219631;83;21068;-82
2022/08/17 03:25:51;;;;;;;14.58;12.88;;;;;;;17.61;100.00;98528.70;4228141;83;21584;-81
2022/08/17 03:31:52;;;;;;;14.45;10.98;;;;;;;17.60;100.00;98537.45;4223767;83;22316;-82
2022/08/17 03:37:54;;;;;;;17.48;11.83;;;;;;;17.60;100.00;98531.31;4211213;83;21013;-82
2022/08/17 03:43:55;;;;;;;17.80;13.40;;;;;;;17.62;100.00;98534.41;4215259;83;21022;-82
2022/08/17 04:02:35;;;;;;;16.07;12.93;;;;;;;17.65;100.00;98537.69;4202078;83;21560;-82
2022/08/17 04:08:37;;;;;;;16.57;12.80;;;;;;;17.60;100.00;98539.61;4237416;82;21551;-82
2022/08/17 04:14:38;;;;;;;27.35;18.92;;;;;;;17.59;100.00;98551.88;4254748;82;21036;-82
2022/08/17 04:20:39;;;;;;;20.17;13.75;;;;;;;17.52;100.00;98551.27;4239147;82;21120;-81
2022/08/17 04:26:40;;;;;;;20.45;14.78;;;;;;;17.55;100.00;98560.09;4256127;82;20951;-81
2022/08/17 04:33:09;;;;;;;24.60;16.40;;;;;;;17.61;100.00;98573.58;4253525;82;21079;-81
2022/08/17 04:39:11;;;;;;;17.12;14.87;;;;;;;17.55;100.00;98569.78;4242468;82;21008;-81
2022/08/17 04:45:12;;;;;;;15.60;13.88;;;;;;;17.64;100.00;98564.41;4245286;82;21059;-82
2022/08/17 04:51:21;;;;;;;16.73;13.93;;;;;;;17.71;100.00;98566.41;4257009;82;21059;-82
2022/08/17 04:57:23;;;;;;;19.67;14.25;;;;;;;17.85;100.00;98568.86;4238049;82;21023;-82
2022/08/17 05:03:25;;;;;;;20.10;14.93;;;;;;;17.93;100.00;98568.83;4246040;82;21011;-82
2022/08/17 05:09:26;;;;;;;18.95;14.58;;;;;;;18.01;100.00;98573.60;4256347;81;20987;-82
2022/08/17 05:15:29;;;;;;;18.85;13.95;;;;;;;18.10;100.00;98571.75;4240231;82;21610;-83
2022/08/17 05:21:31;;;;;;;22.35;14.35;;;;;;;18.21;100.00;98568.09;4245133;82;21574;-81
2022/08/17 05:27:32;;;;;;;18.92;14.40;;;;;;;18.34;100.00;98573.70;4254540;82;21081;-83
2022/08/17 05:33:37;;;;;;;15.25;13.55;;;;;;;18.46;100.00;98581.34;4222855;83;21109;-82
2022/08/17 05:39:39;;;;;;;16.77;14.87;;;;;;;18.58;100.00;98580.61;4252396;82;20970;-83
2022/08/17 05:46:05;;;;;;;17.60;13.93;;;;;;;18.72;100.00;98588.53;4249710;82;20984;-82
2022/08/17 05:52:26;;;;;;;17.40;15.43;;;;;;;18.88;100.00;98591.25;4259972;82;21027;-83
2022/08/17 05:58:58;;;;;;;18.25;14.93;;;;;;;19.06;100.00;98601.21;4220882;83;20981;-82
2022/08/17 06:05:34;;;;;;;18.20;14.40;;;;;;;19.26;100.00;98598.27;4255175;81;21029;-83
2022/08/17 06:12:06;;;;;;;19.30;16.12;;;;;;;19.52;100.00;98595.10;4218153;83;21057;-83
2022/08/17 06:18:10;;;;;;;20.15;15.90;;;;;;;19.92;100.00;98600.34;4220730;83;21015;-83
2022/08/17 06:24:27;;;;;;;19.37;14.65;;;;;;;20.34;100.00;98591.85;4244616;82;21015;-84
2022/08/17 06:30:32;;;;;;;23.57;15.50;;;;;;;20.68;100.00;98587.66;4253624;82;20992;-82
2022/08/17 06:37:17;;;;;;;16.20;14.03;;;;;;;20.98;100.00;98593.34;4246149;82;21014;-83
2022/08/17 06:43:39;;;;;;;21.27;14.98;;;;;;;21.16;100.00;98596.83;4242797;82;20971;-84
2022/08/17 06:49:50;;;;;;;16.15;13.22;;;;;;;21.39;100.00;98596.36;4252115;82;21586;-85
2022/08/17 06:56:08;;;;;;;17.15;13.25;;;;;;;21.65;100.00;98596.31;4241703;82;21027;-83
2022/08/17 07:02:13;;;;;;;20.62;13.70;;;;;;;21.87;100.00;98597.05;4259291;82;20963;-83
2022/08/17 07:08:53;;;;;;;17.87;13.75;;;;;;;22.00;100.00;98600.50;4254657;82;21025;-85
2022/08/17 07:15:15;;;;;;;18.65;13.83;;;;;;;22.14;100.00;98603.31;4255017;82;21008;-84
2022/08/17 07:21:45;;;;;;;18.52;14.87;;;;;;;22.30;100.00;98598.22;4262666;82;21067;-84
2022/08/17 07:27:54;;;;;;;19.55;14.65;;;;;;;22.52;100.00;98610.05;4265016;82;21458;-84
2022/08/17 07:34:07;;;;;;;19.62;14.80;;;;;;;22.72;100.00;98602.63;4258516;82;21006;-84
2022/08/17 07:40:19;;;;;;;19.70;14.50;;;;;;;22.95;100.00;98606.96;4194882;83;21015;-84
2022/08/17 07:52:58;;;;;;;19.87;13.95;;;;;;;23.76;99.44;98599.00;4262447;82;20926;-83
2022/08/17 07:59:17;;;;;;;17.57;13.08;;;;;;;24.20;98.75;98592.27;4231600;82;21066;-84
2022/08/17 08:05:28;;;;;;;17.98;13.43;;;;;;;24.76;97.78;98592.83;4255246;82;20979;-85
2022/08/17 08:11:35;;;;;;;20.75;15.40;;;;;;;25.21;96.57;98595.20;4180674;83;21631;-85
2022/08/17 08:17:54;;;;;;;21.33;14.40;;;;;;;25.49;94.89;98600.67;4248043;82;21031;-84
2022/08/17 08:24:20;;;;;;;18.12;14.20;;;;;;;25.71;94.24;98605.24;4257953;82;22079;-84
2022/08/17 08:30:22;;;;;;;19.73;16.13;;;;;;;26.00;93.10;98600.99;4222750;83;21106;-84
2022/08/17 08:36:49;;;;;;;21.20;14.47;;;;;;;26.25;91.77;98603.14;4255307;82;21488;-84
2022/08/17 08:43:05;;;;;;;17.32;13.98;;;;;;;26.27;90.79;98602.02;4251086;82;21621;-83
2022/08/17 08:49:21;;;;;;;20.62;14.83;;;;;;;26.61;89.68;98595.56;4215256;83;21959;-85
2022/08/17 08:55:46;;;;;;;22.67;13.77;;;;;;;26.78;88.11;98598.62;4224437;83;21542;-86
2022/08/17 09:02:12;;;;;;;16.50;13.48;;;;;;;26.95;87.87;98588.34;4180375;83;20982;-83
2022/08/17 09:08:25;;;;;;;18.50;13.32;;;;;;;27.21;86.81;98594.09;4223017;83;21004;-84
2022/08/17 09:14:43;;;;;;;19.10;13.50;;;;;;;27.47;86.33;98589.87;4224943;83;21024;-84
2022/08/17 09:20:57;;;;;;;17.27;12.70;;;;;;;27.76;84.83;98594.45;4211792;83;21056;-84
2022/08/17 09:27:19;;;;;;;17.20;12.40;;;;;;;28.23;84.24;98590.95;4236090;83;21064;-84
2022/08/17 09:33:26;;;;;;;16.55;11.90;;;;;;;28.85;82.58;98601.36;4243853;82;21535;-85
2022/08/17 09:39:36;;;;;;;16.10;12.37;;;;;;;29.57;81.37;98586.66;4221459;83;20991;-85
2022/08/17 09:45:49;;;;;;;15.70;11.25;;;;;;;30.26;80.24;98580.70;4237480;81;21064;-85
2022/08/17 09:52:01;;;;;;;13.20;11.90;;;;;;;30.98;78.61;98596.61;4229017;82;21067;-84
2022/08/17 09:58:08;;;;;;;19.70;12.28;;;;;;;31.43;76.79;98597.20;4232237;82;21080;-86
2022/08/17 10:04:43;;;;;;;17.23;12.00;;;;;;;31.89;74.16;98590.05;4251159;82;21543;-83
2022/08/17 10:11:11;;;;;;;14.73;11.85;;;;;;;32.17;72.97;98586.17;4239879;82;21939;-84
2022/08/17 10:17:49;;;;;;;13.90;11.48;;;;;;;32.81;70.06;98577.41;4181760;83;21048;-84
2022/08/17 10:30:19;;;;;;;15.88;11.78;;;;;;;32.22;68.40;98574.00;4239532;82;21031;-85
2022/08/17 10:36:47;;;;;;;16.97;13.13;;;;;;;32.26;66.60;98573.84;4235694;82;21011;-84
2022/08/17 10:43:11;;;;;;;15.13;12.37;;;;;;;31.30;65.71;98578.69;4239655;82;20948;-83
2022/08/17 10:49:21;;;;;;;14.13;12.25;;;;;;;30.99;65.80;98578.34;4243389;82;21622;-85
2022/08/17 10:55:24;;;;;;;16.52;12.90;;;;;;;30.95;64.83;98578.62;4258366;82;21008;-85
2022/08/17 11:01:42;;;;;;;14.47;12.10;;;;;;;31.59;64.63;98566.61;4253450;82;20992;-83
2022/08/17 11:08:13;;;;;;;12.95;11.18;;;;;;;32.08;63.19;98566.69;4233783;82;21613;-85
2022/08/17 11:14:46;;;;;;;13.20;11.05;;;;;;;32.60;62.58;98561.47;4246059;82;21159;-85
2022/08/17 11:21:20;;;;;;;14.43;10.68;;;;;;;33.14;61.47;98552.87;4224024;83;21079;-84
2022/08/17 11:27:32;;;;;;;18.03;12.00;;;;;;;33.44;60.62;98549.10;4209632;83;21047;-84
2022/08/17 11:33:54;;;;;;;12.33;11.05;;;;;;;33.62;59.26;98547.63;4242589;82;21059;-84
2022/08/17 11:40:51;;;;;;;13.83;11.50;;;;;;;33.39;57.76;98558.56;4232969;82;21605;-84
2022/08/17 11:54:03;;;;;;;13.48;11.63;;;;;;;32.53;56.85;98553.59;4249989;82;21554;-83
2022/08/17 12:00:11;;;;;;;13.80;11.78;;;;;;;31.44;56.86;98557.75;4213536;83;21009;-86
2022/08/17 12:06:28;;;;;;;12.53;11.20;;;;;;;31.09;56.55;98551.31;4170998;83;21033;-85
2022/08/17 12:12:34;;;;;;;13.00;10.70;;;;;;;30.89;56.35;98548.21;4207394;83;21552;-84
2022/08/17 12:18:38;;;;;;;11.85;10.60;;;;;;;30.68;56.31;98547.67;4247228;82;21121;-86
2022/08/17 12:25:04;;;;;;;18.60;10.97;;;;;;;30.36;56.61;98541.02;4243891;82;20987;-84
2022/08/17 12:31:20;;;;;;;11.95;10.55;;;;;;;30.05;56.77;98546.22;4256327;82;21404;-85
2022/08/17 12:37:26;;;;;;;14.70;10.00;;;;;;;29.84;57.30;98543.55;4245207;82;20975;-84
2022/08/17 12:43:31;;;;;;;;;;;;;;;29.63;56.79;98545.86;4223249;83;21937;-83
2022/08/17 12:49:41;;;;;;;14.10;9.70;;;;;;;29.29;56.81;98545.75;4108694;83;9999685;-83
2022/08/17 12:55:43;;;;;;;13.58;10.28;;;;;;;28.86;57.14;98550.03;4219454;83;21763;-83
2022/08/17 13:01:45;;;;;;;16.70;10.00;;;;;;;28.45;57.58;98546.02;4223206;83;21577;-85
2022/08/17 13:07:47;;;;;;;11.65;10.23;;;;;;;28.48;58.42;98543.00;4220883;83;21032;-84
2022/08/17 13:13:53;;;;;;;13.88;9.83;;;;;;;28.50;58.80;98550.28;4219394;83;21986;-84
2022/08/17 13:19:56;;;;;;;15.63;10.05;;;;;;;28.58;58.69;98540.73;4240785;82;21030;-83
2022/08/17 13:26:06;;;;;;;10.68;9.03;;;;;;;28.66;58.59;98541.78;4246099;82;21578;-83
2022/08/17 13:32:14;;;;;;;10.20;9.08;;;;;;;28.78;59.21;98534.27;4239674;82;21000;-85
2022/08/17 13:38:38;;;;;;;13.98;9.43;;;;;;;28.84;59.15;98523.00;4241039;82;21044;-84
2022/08/17 13:44:39;;;;;;;11.50;9.33;;;;;;;28.84;59.32;98522.37;4232863;82;21994;-83
2022/08/17 13:50:49;;;;;;;9.40;8.18;;;;;;;28.79;59.28;98525.94;4243721;82;21671;-84
2022/08/17 13:57:01;;;;;;;13.78;8.13;;;;;;;28.76;59.01;98533.22;4238111;82;20944;-85
2022/08/17 14:03:04;;;;;;;10.13;7.80;;;;;;;28.80;58.90;98530.94;4204520;83;21648;-83
2022/08/17 14:09:06;;;;;;;15.03;9.25;;;;;;;28.81;57.84;98534.66;4250178;82;21672;-83
2022/08/17 14:15:09;;;;;;;12.75;9.80;;;;;;;28.79;58.40;98538.61;4237890;82;21074;-83
2022/08/17 14:21:11;;;;;;;12.47;10.00;;;;;;;28.79;58.26;98545.66;4263201;82;21062;-83
2022/08/17 14:27:15;;;;;;;12.35;11.08;;;;;;;28.75;57.91;98528.22;4269049;82;22057;-84
2022/08/17 14:33:23;;;;;;;14.68;10.38;;;;;;;28.67;58.01;98537.69;4273188;82;20988;-85
2022/08/17 14:39:20;;;;;;;13.48;9.85;;;;;;;28.52;57.79;98537.88;4223136;83;21110;-84
2022/08/17 14:45:23;;;;;;;12.78;10.05;;;;;;;28.34;57.65;98530.49;4261584;82;21977;-84
2022/08/17 14:51:28;;;;;;;12.15;8.43;;;;;;;28.17;58.30;98535.28;4253559;82;21015;-84
2022/08/17 14:57:30;;;;;;;8.13;7.17;;;;;;;28.01;58.51;98536.73;4218976;83;21020;-84
2022/08/17 15:03:31;;;;;;;7.10;6.33;;;;;;;27.91;58.40;98546.64;4257815;82;21114;-83
2022/08/17 15:09:33;;;;;;;8.38;6.75;;;;;;;27.76;58.36;98541.80;4251653;82;21027;-83
2022/08/17 15:15:35;;;;;;;9.93;7.37;;;;;;;27.82;58.82;98536.20;4216249;83;20996;-83
2022/08/17 15:21:36;;;;;;;9.40;6.85;;;;;;;27.93;59.49;98530.67;4228053;83;21591;-83
2022/08/17 15:27:39;;;;;;;8.85;6.50;;;;;;;27.95;59.73;98540.78;4255544;82;21340;-83
2022/08/17 15:33:40;;;;;;;9.50;6.80;;;;;;;27.95;59.50;98537.98;4212590;83;21004;-85
2022/08/17 15:39:41;;;;;;;9.28;7.40;;;;;;;27.89;59.76;98538.59;4241649;82;22093;-83
2022/08/17 15:45:44;;;;;;;10.65;8.13;;;;;;;27.81;60.37;98537.48;4215720;83;21048;-83
2022/08/17 15:51:45;;;;;;;10.20;8.33;;;;;;;27.80;60.64;98531.08;4249582;82;21003;-85
2022/08/17 15:57:47;;;;;;;10.03;8.23;;;;;;;27.75;60.59;98533.23;4211082;83;21029;-83
2022/08/17 16:03:50;;;;;;;14.07;8.58;;;;;;;27.67;60.53;98532.16;4207367;83;22267;-83
2022/08/17 16:09:51;;;;;;;12.00;10.03;;;;;;;27.67;60.72;98529.34;4250738;82;21030;-84
2022/08/17 16:15:54;;;;;;;10.30;9.00;;;;;;;27.60;61.21;98534.80;4239731;82;21932;-84
2022/08/17 16:21:55;;;;;;;11.85;8.90;;;;;;;27.56;60.86;98534.89;4213132;83;21146;-85
2022/08/17 16:27:56;;;;;;;10.60;7.92;;;;;;;27.70;60.18;98541.62;4244676;82;21822;-85
2022/08/17 16:33:58;;;;;;;10.00;8.63;;;;;;;27.73;59.75;98551.23;4214491;83;22001;-84
2022/08/17 16:40:02;;;;;;;11.38;8.18;;;;;;;27.76;60.26;98561.48;4216952;83;21034;-84
2022/08/17 16:46:04;;;;;;;9.03;8.13;;;;;;;27.62;61.66;98569.44;4219754;83;21008;-85
2022/08/17 16:52:08;;;;;;;11.10;8.50;;;;;;;27.32;62.51;98569.56;4217685;83;21116;-84
2022/08/17 16:58:10;;;;;;;15.13;9.33;;;;;;;27.08;63.26;98582.47;4225453;83;21151;-84
2022/08/17 17:04:15;;;;;;;14.93;8.95;;;;;;;26.79;64.17;98590.32;4239486;82;21536;-84
2022/08/17 17:10:22;;;;;;;9.63;8.67;;;;;;;26.53;65.22;98588.83;4249217;82;20991;-84
2022/08/17 17:16:50;;;;;;;12.25;9.30;;;;;;;26.32;65.40;98593.53;4244632;82;21047;-83
2022/08/17 17:23:17;;;;;;;12.53;9.40;;;;;;;26.18;66.02;98601.38;4176767;84;21051;-83
2022/08/17 17:29:49;;;;;;;11.05;9.55;;;;;;;25.95;66.71;98598.87;4166211;84;21126;-84
2022/08/17 17:36:00;;;;;;;11.05;9.68;;;;;;;25.77;67.36;98610.30;4209874;83;21039;-84
2022/08/17 17:42:06;;;;;;;12.05;10.85;;;;;;;25.60;67.89;98614.25;4221253;82;21082;-83
2022/08/17 17:48:08;;;;;;;13.08;10.13;;;;;;;25.45;68.52;98622.53;4241293;82;22041;-83
2022/08/17 17:54:37;;;;;;;11.12;9.60;;;;;;;25.21;69.53;98642.81;4230309;82;21067;-83
2022/08/17 18:01:17;;;;;;;16.17;10.43;;;;;;;25.21;69.53;98642.81;4237099;81;20997;-83
2022/08/17 18:07:34;;;;;;;12.53;10.28;;;;;;;25.04;70.51;98641.73;4226766;82;21027;-82
2022/08/17 18:14:13;;;;;;;11.28;9.90;;;;;;;24.85;71.44;98657.91;4232255;82;21037;-83
2022/08/17 18:20:12;;;;;;;15.38;9.55;;;;;;;24.66;71.95;98666.30;4225121;82;21513;-83
2022/08/17 18:26:46;;;;;;;15.25;11.03;;;;;;;24.41;72.47;98665.34;4218437;83;21004;-83
2022/08/17 18:32:48;;;;;;;17.50;11.63;;;;;;;24.30;73.26;98657.48;4211655;83;20961;-82
2022/08/17 18:39:11;;;;;;;16.90;12.82;;;;;;;24.04;73.79;98657.00;4253730;82;21911;-83
2022/08/17 18:45:37;;;;;;;19.02;12.47;;;;;;;23.80;74.60;98656.12;4251233;82;21565;-83
2022/08/17 18:51:41;;;;;;;16.05;12.47;;;;;;;23.58;75.34;98663.34;4222217;83;20996;-82
2022/08/17 18:57:48;;;;;;;16.45;13.35;;;;;;;23.37;76.20;98664.31;4241204;82;20956;-83
2022/08/17 19:03:50;;;;;;;19.45;13.78;;;;;;;23.20;77.12;98664.47;4248651;82;21011;-83
2022/08/17 19:10:14;;;;;;;18.35;14.45;;;;;;;22.97;77.89;98670.69;4246462;82;21005;-83
2022/08/17 19:16:51;;;;;;;16.57;14.43;;;;;;;22.92;78.69;98682.47;4218461;83;20988;-82
2022/08/17 19:23:02;;;;;;;19.87;14.25;;;;;;;22.72;79.00;98680.75;4047527;85;21552;-84
2022/08/17 19:29:18;;;;;;;18.70;15.65;;;;;;;22.51;80.48;98686.61;4094678;85;21055;-83
2022/08/17 19:35:22;;;;;;;18.50;16.07;;;;;;;22.50;80.89;98680.85;4157453;84;20956;-82
2022/08/17 19:41:38;;;;;;;21.48;16.75;;;;;;;22.44;81.59;98685.47;4166681;84;21068;-82
2022/08/17 19:47:51;;;;;;;22.22;15.85;;;;;;;22.35;82.03;98696.60;4123109;85;21041;-84
2022/08/17 19:54:27;;;;;;;21.52;15.63;;;;;;;22.25;82.45;98697.05;4257103;82;20946;-86
2022/08/17 20:00:30;;;;;;;20.88;15.25;;;;;;;22.11;83.08;98694.83;4259598;82;20975;-83
2022/08/17 20:06:36;;;;;;;19.07;15.53;;;;;;;21.93;83.76;98687.77;4260190;82;21004;-82
2022/08/17 20:12:41;;;;;;;21.12;16.90;;;;;;;21.82;84.45;98692.98;4254622;82;21047;-85
2022/08/17 20:19:06;;;;;;;18.42;16.48;;;;;;;21.76;85.21;98692.03;4256462;82;21037;-83
2022/08/17 20:25:12;;;;;;;21.95;16.20;;;;;;;21.63;85.56;98701.83;4328161;80;21040;-82
2022/08/17 20:31:43;;;;;;;23.83;17.30;;;;;;;21.44;86.14;98705.13;4227518;80;9999851;-82
2022/08/17 20:38:10;;;;;;;18.73;14.95;;;;;;;21.34;86.93;98713.87;4328921;80;21067;-82
2022/08/17 20:44:13;;;;;;;;;;;;;;;21.26;87.65;98707.80;4252199;82;20998;-82
2022/08/17 20:50:32;;;;;;;25.40;18.95;;;;;;;21.21;89.05;98706.19;4224291;82;20158;-84
2022/08/17 20:56:50;;;;;;;20.77;17.55;;;;;;;21.07;88.32;98694.97;4250144;81;21062;-82
2022/08/17 21:03:21;;;;;;;21.10;18.07;;;;;;;20.93;88.78;98689.87;4234025;82;21064;-82
2022/08/17 21:09:28;;;;;;;24.45;20.70;;;;;;;20.86;89.52;98701.87;4067933;85;21140;-84
2022/08/17 21:15:40;;;;;;;19.98;17.07;;;;;;;20.81;90.05;98706.61;4246304;82;21002;-83
2022/08/17 21:22:23;;;;;;;21.62;17.07;;;;;;;20.68;89.92;98699.69;4239470;82;21175;-82
2022/08/17 21:29:06;;;;;;;25.60;16.85;;;;;;;20.55;90.72;98704.50;4254269;82;21062;-82
2022/08/17 21:35:27;;;;;;;17.02;15.18;;;;;;;20.42;91.38;98707.14;4186993;83;21035;-82
2022/08/17 21:41:51;;;;;;;18.25;15.45;;;;;;;20.37;92.23;98715.44;4237598;82;22024;-82
2022/08/17 21:48:16;;;;;;;17.30;15.60;;;;;;;20.43;92.79;98707.30;4187009;83;21084;-82
2022/08/17 21:54:38;;;;;;;18.05;16.25;;;;;;;20.45;93.26;98711.20;4202018;83;21691;-83
2022/08/17 22:00:39;;;;;;;15.75;13.85;;;;;;;20.34;92.87;98689.14;4239710;82;21523;-82
2022/08/17 22:06:45;;;;;;;16.95;15.15;;;;;;;20.17;93.64;98692.67;4251756;82;20986;-82
2022/08/17 22:13:07;;;;;;;19.30;16.10;;;;;;;20.16;94.19;98699.44;4248666;82;21081;-83
2022/08/17 22:19:10;;;;;;;19.98;17.87;;;;;;;20.22;94.73;98692.09;4193767;83;21040;-82
2022/08/17 22:25:18;;;;;;;21.50;17.57;;;;;;;20.19;94.34;98679.09;4336049;80;21054;-85
2022/08/17 22:31:29;;;;;;;20.92;18.27;;;;;;;20.04;94.85;98671.02;4339738;80;20991;-83
2022/08/17 22:37:30;;;;;;;21.05;17.57;;;;;;;19.88;94.91;98683.03;4337641;80;21010;-82
2022/08/17 22:43:35;;;;;;;20.27;15.98;;;;;;;19.84;96.21;98692.06;4329540;80;20971;-83
2022/08/17 22:49:46;;;;;;;22.62;17.37;;;;;;;19.90;96.31;98685.36;4323771;80;21479;-82
2022/08/17 23:02:25;;;;;;;23.47;19.30;;;;;;;19.58;96.02;98670.27;4342270;80;20967;-82
2022/08/17 23:08:27;;;;;;;24.67;18.85;;;;;;;19.45;96.35;98667.48;4334718;80;20966;-82
2022/08/17 23:14:30;;;;;;;24.50;18.23;;;;;;;19.36;96.72;98667.95;4240486;82;21067;-82
2022/08/17 23:20:36;;;;;;;16.95;15.25;;;;;;;19.38;97.85;98677.41;4243150;82;20995;-83
2022/08/17 23:26:39;;;;;;;19.55;17.45;;;;;;;19.45;97.96;98684.13;4236537;82;21053;-83
2022/08/17 23:32:40;;;;;;;25.60;20.27;;;;;;;19.43;97.83;98692.74;4241203;83;20931;-83
2022/08/17 23:38:45;;;;;;;22.95;20.60;;;;;;;19.39;97.90;98680.34;4241494;82;22037;-82
2022/08/17 23:44:47;;;;;;;22.27;16.80;;;;;;;19.28;97.96;98680.50;4227114;82;21036;-82
2022/08/17 23:50:50;;;;;;;20.60;17.32;;;;;;;19.12;98.02;98686.84;4222361;83;22051;-82
2022/08/17 23:56:52;;;;;;;24.25;16.30;;;;;;;19.05;98.35;98694.58;4246710;82;21054;-82
